createdAt,value
2022-12-25T00:00:00.514Z,8.13
2022-12-25T00:02:28.441Z,8.15
2022-12-25T00:04:55.610Z,8.18
2022-12-25T00:07:22.069Z,8.19
2022-12-25T00:09:48.465Z,8.25
2022-12-25T00:12:15.591Z,8.26
2022-12-25T00:14:41.980Z,8.28
2022-12-25T00:17:09.930Z,8.28
2022-12-25T00:23:07.154Z,8.31
2022-12-25T00:25:33.926Z,8.36
2022-12-25T00:28:00.317Z,8.41
2022-12-25T00:30:26.866Z,8.46
2022-12-25T00:32:53.263Z,8.50
2022-12-25T00:35:19.656Z,8.54
2022-12-25T00:37:46.097Z,8.59
2022-12-25T00:40:14.131Z,8.64
2022-12-25T00:42:40.575Z,8.69
2022-12-25T00:45:07.516Z,8.71
2022-12-25T00:47:33.934Z,8.72
2022-12-25T00:50:00.293Z,8.75
2022-12-25T00:52:26.772Z,8.77
2022-12-25T00:54:53.199Z,8.81
2022-12-25T00:57:21.005Z,8.82
2022-12-25T00:59:47.437Z,8.85
2022-12-25T01:02:13.958Z,8.85
2022-12-25T01:04:40.382Z,8.86
2022-12-25T01:07:06.777Z,8.86
2022-12-25T01:09:33.280Z,8.85
2022-12-25T01:11:59.706Z,8.86
2022-12-25T01:14:27.572Z,8.88
2022-12-25T01:16:54.921Z,8.89
2022-12-25T01:19:21.782Z,8.86
2022-12-25T01:21:48.171Z,8.87
2022-12-25T01:24:14.683Z,8.86
2022-12-25T01:26:41.093Z,8.85
2022-12-25T01:29:07.573Z,8.85
2022-12-25T01:31:35.498Z,8.87
2022-12-25T01:34:02.161Z,8.88
2022-12-25T01:36:28.555Z,8.87
2022-12-25T01:38:55.052Z,8.88
2022-12-25T01:41:23.292Z,8.91
2022-12-25T01:43:57.173Z,8.91
2022-12-25T01:46:23.721Z,8.93
2022-12-25T01:48:52.212Z,8.92
2022-12-25T01:51:22.730Z,8.92
2022-12-25T01:53:49.289Z,8.92
2022-12-25T01:56:15.836Z,8.92
2022-12-25T01:58:42.478Z,8.99
2022-12-25T02:01:08.933Z,9.03
2022-12-25T02:03:35.513Z,9.06
2022-12-25T02:06:03.705Z,9.09
2022-12-25T02:08:31.511Z,9.12
2022-12-25T02:10:58.033Z,9.15
2022-12-25T02:13:25.258Z,9.15
2022-12-25T02:15:54.954Z,9.18
2022-12-25T02:18:27.430Z,9.19
2022-12-25T02:21:17.917Z,9.18
2022-12-25T02:24:06.195Z,9.16
2022-12-25T02:26:56.537Z,9.16
2022-12-25T02:29:26.603Z,9.13
2022-12-25T02:31:55.543Z,9.08
2022-12-25T02:34:25.840Z,9.04
2022-12-25T02:36:55.442Z,9.00
2022-12-25T02:39:25.279Z,8.95
2022-12-25T02:41:53.868Z,8.92
2022-12-25T02:44:23.025Z,8.88
2022-12-25T02:46:52.214Z,8.87
2022-12-25T02:49:21.956Z,8.85
2022-12-25T02:51:51.001Z,8.86
2022-12-25T02:54:19.116Z,8.87
2022-12-25T02:56:46.868Z,8.89
2022-12-25T02:59:14.917Z,8.91
2022-12-25T03:01:42.432Z,8.95
2022-12-25T03:04:12.771Z,8.99
2022-12-25T03:06:40.699Z,9.03
2022-12-25T03:09:09.021Z,9.03
2022-12-25T03:11:36.291Z,9.05
2022-12-25T03:14:03.898Z,9.08
2022-12-25T03:16:30.607Z,9.10
2022-12-25T03:18:58.008Z,9.13
2022-12-25T03:21:25.961Z,9.13
2022-12-25T03:23:54.796Z,9.17
2022-12-25T03:26:21.466Z,9.15
2022-12-25T03:28:47.898Z,9.20
2022-12-25T03:31:15.726Z,9.21
2022-12-25T03:34:02.338Z,9.21
2022-12-25T03:36:33.458Z,9.23
2022-12-25T03:39:02.497Z,9.24
2022-12-25T03:41:33.801Z,9.26
2022-12-25T03:44:04.718Z,9.27
2022-12-25T03:46:34.370Z,9.29
2022-12-25T03:49:05.058Z,9.29
2022-12-25T03:51:35.359Z,9.29
2022-12-25T03:54:05.357Z,9.28
2022-12-25T03:56:32.863Z,9.23
2022-12-25T03:58:59.448Z,9.22
2022-12-25T04:01:25.918Z,9.22
2022-12-25T04:03:52.616Z,9.21
2022-12-25T04:06:19.105Z,9.19
2022-12-25T04:08:46.907Z,9.19
2022-12-25T04:11:13.283Z,9.17
2022-12-25T04:13:39.824Z,9.17
2022-12-25T04:16:06.562Z,9.16
2022-12-25T04:18:33.032Z,9.12
2022-12-25T04:20:59.755Z,9.10
2022-12-25T04:23:26.261Z,9.03
2022-12-25T04:25:53.998Z,8.91
2022-12-25T04:28:20.604Z,8.83
2022-12-25T04:30:47.216Z,8.75
2022-12-25T04:33:13.629Z,8.65
2022-12-25T04:35:40.022Z,8.57
2022-12-25T04:38:06.476Z,8.52
2022-12-25T04:40:33.118Z,8.43
2022-12-25T04:43:00.946Z,8.37
2022-12-25T04:45:27.296Z,8.34
2022-12-25T04:47:53.767Z,8.35
2022-12-25T04:50:20.219Z,8.39
2022-12-25T04:52:46.703Z,8.46
2022-12-25T04:55:13.207Z,8.56
2022-12-25T04:57:40.089Z,8.59
2022-12-25T05:00:09.085Z,8.61
2022-12-25T05:02:35.614Z,8.64
2022-12-25T05:05:02.363Z,8.65
2022-12-25T05:07:28.918Z,8.62
2022-12-25T05:09:55.379Z,8.62
2022-12-25T05:12:21.749Z,8.60
2022-12-25T05:14:48.253Z,8.59
2022-12-25T05:17:16.346Z,8.63
2022-12-25T05:19:42.887Z,8.69
2022-12-25T05:22:09.514Z,8.68
2022-12-25T05:24:35.927Z,8.67
2022-12-25T05:27:02.430Z,8.69
2022-12-25T05:29:28.804Z,8.72
2022-12-25T05:31:55.283Z,8.78
2022-12-25T05:34:23.228Z,8.84
2022-12-25T05:36:49.705Z,8.90
2022-12-25T05:39:16.069Z,8.93
2022-12-25T05:41:42.548Z,8.97
2022-12-25T05:44:08.989Z,8.97
2022-12-25T05:46:35.492Z,9.04
2022-12-25T05:49:01.931Z,9.10
2022-12-25T05:51:29.968Z,9.12
2022-12-25T05:53:56.383Z,9.18
2022-12-25T05:56:22.820Z,9.21
2022-12-25T05:58:49.269Z,9.27
2022-12-25T06:01:16.862Z,9.29
2022-12-25T06:03:43.351Z,9.34
2022-12-25T06:06:10.217Z,9.35
2022-12-25T06:08:38.071Z,9.39
2022-12-25T06:11:05.383Z,9.42
2022-12-25T06:13:32.530Z,9.42
2022-12-25T06:15:59.087Z,9.45
2022-12-25T06:18:25.788Z,9.46
2022-12-25T06:20:52.203Z,9.46
2022-12-25T06:23:18.624Z,9.45
2022-12-25T06:25:46.564Z,9.46
2022-12-25T06:28:12.903Z,9.48
2022-12-25T06:30:39.341Z,9.47
2022-12-25T06:33:05.744Z,9.47
2022-12-25T06:35:32.139Z,9.47
2022-12-25T06:37:58.569Z,9.46
2022-12-25T06:40:25.263Z,9.49
2022-12-25T06:42:52.978Z,9.49
2022-12-25T06:45:19.425Z,9.48
2022-12-25T06:47:45.814Z,9.45
2022-12-25T06:50:12.270Z,9.41
2022-12-25T06:52:38.661Z,9.36
2022-12-25T06:55:06.539Z,9.33
2022-12-25T06:57:33.007Z,9.31
2022-12-25T07:00:00.801Z,9.29
2022-12-25T07:02:27.463Z,9.28
2022-12-25T07:04:54.353Z,9.23
2022-12-25T07:07:20.787Z,9.20
2022-12-25T07:09:47.292Z,9.16
2022-12-25T07:12:15.619Z,9.16
2022-12-25T07:14:43.020Z,9.13
2022-12-25T07:17:11.099Z,9.11
2022-12-25T07:19:44.478Z,9.08
2022-12-25T07:22:37.787Z,9.03
2022-12-25T07:25:04.582Z,9.00
2022-12-25T07:27:30.984Z,8.96
2022-12-25T07:29:57.459Z,8.95
2022-12-25T07:32:25.230Z,8.92
2022-12-25T07:34:51.699Z,8.90
2022-12-25T07:37:18.095Z,8.87
2022-12-25T07:39:44.536Z,8.86
2022-12-25T07:45:03.100Z,8.81
2022-12-25T07:47:30.878Z,8.81
2022-12-25T07:49:57.439Z,8.81
2022-12-25T07:52:23.829Z,8.82
2022-12-25T07:54:50.241Z,8.82
2022-12-25T07:57:16.658Z,8.83
2022-12-25T07:59:43.255Z,8.87
2022-12-25T08:02:10.345Z,8.89
2022-12-25T08:04:38.345Z,8.93
2022-12-25T08:07:04.890Z,8.95
2022-12-25T08:09:31.360Z,8.96
2022-12-25T08:11:57.780Z,8.96
2022-12-25T08:14:25.043Z,8.99
2022-12-25T08:16:51.542Z,9.03
2022-12-25T08:19:18.137Z,9.06
2022-12-25T08:21:45.920Z,9.08
2022-12-25T08:24:12.351Z,9.09
2022-12-25T08:26:38.719Z,9.12
2022-12-25T08:29:05.269Z,9.12
2022-12-25T08:31:33.923Z,9.15
2022-12-25T08:34:02.294Z,9.16
2022-12-25T08:36:28.706Z,9.16
2022-12-25T08:39:02.622Z,9.17
2022-12-25T08:41:29.976Z,9.15
2022-12-25T08:43:56.396Z,9.16
2022-12-25T08:46:22.903Z,9.16
2022-12-25T08:48:49.868Z,9.16
2022-12-25T08:51:17.402Z,9.16
2022-12-25T08:53:44.347Z,9.14
2022-12-25T08:56:15.560Z,9.14
2022-12-25T08:58:41.968Z,9.11
2022-12-25T09:01:08.648Z,9.07
2022-12-25T09:03:35.426Z,9.06
2022-12-25T09:06:02.674Z,9.04
2022-12-25T09:08:29.411Z,9.03
2022-12-25T09:10:55.799Z,9.01
2022-12-25T09:16:52.903Z,8.98
2022-12-25T09:19:19.443Z,8.96
2022-12-25T09:21:45.889Z,8.93
2022-12-25T09:24:38.440Z,8.92
2022-12-25T09:27:05.060Z,8.91
2022-12-25T09:29:32.947Z,8.88
2022-12-25T09:31:59.485Z,8.88
2022-12-25T09:41:35.044Z,8.98
2022-12-25T09:44:04.103Z,9.03
2022-12-25T09:46:37.451Z,9.08
2022-12-25T09:49:35.418Z,9.12
2022-12-25T09:52:05.002Z,9.13
2022-12-25T09:54:36.369Z,9.16
2022-12-25T09:57:03.386Z,9.12
2022-12-25T09:59:29.955Z,9.17
2022-12-25T10:02:04.878Z,9.22
2022-12-25T10:04:42.525Z,9.25
2022-12-25T10:07:14.252Z,9.29
2022-12-25T10:10:16.459Z,9.34
2022-12-25T10:12:50.316Z,9.38
2022-12-25T10:15:25.752Z,9.34
2022-12-25T10:18:00.694Z,9.35
2022-12-25T10:20:36.594Z,9.38
2022-12-25T10:23:06.013Z,9.39
2022-12-25T10:25:32.501Z,9.44
2022-12-25T10:28:01.878Z,9.48
2022-12-25T10:30:28.602Z,9.49
2022-12-25T10:32:55.962Z,9.49
2022-12-25T10:35:24.716Z,9.50
2022-12-25T10:37:54.540Z,9.51
2022-12-25T10:40:28.134Z,9.52
2022-12-25T10:42:57.448Z,9.52
2022-12-25T10:45:23.951Z,9.54
2022-12-25T10:47:59.550Z,9.55
2022-12-25T10:50:30.137Z,9.57
2022-12-25T10:53:01.309Z,9.59
2022-12-25T10:55:29.558Z,9.58
2022-12-25T10:57:56.609Z,9.58
2022-12-25T11:00:24.401Z,9.59
2022-12-25T11:06:24.108Z,9.59
2022-12-25T11:08:51.810Z,9.60
2022-12-25T11:11:19.582Z,9.60
2022-12-25T11:13:48.353Z,9.62
2022-12-25T11:16:25.214Z,9.60
2022-12-25T11:18:52.812Z,9.60
2022-12-25T11:21:22.312Z,9.62
2022-12-25T11:23:55.155Z,9.65
2022-12-25T11:26:21.878Z,9.67
2022-12-25T11:28:50.030Z,9.71
2022-12-25T11:31:17.327Z,9.72
2022-12-25T11:33:46.054Z,9.72
2022-12-25T11:36:44.958Z,9.71
2022-12-25T11:39:19.714Z,9.72
2022-12-25T11:41:46.518Z,9.73
2022-12-25T11:44:18.853Z,9.73
2022-12-25T11:46:48.445Z,9.74
2022-12-25T11:49:18.409Z,9.74
2022-12-25T11:51:46.345Z,9.75
2022-12-25T11:54:17.643Z,9.76
2022-12-25T11:56:44.075Z,9.75
2022-12-25T11:59:18.151Z,9.77
2022-12-25T12:01:47.061Z,9.77
2022-12-25T12:04:43.594Z,9.79
2022-12-25T12:10:15.067Z,9.83
2022-12-25T12:12:49.074Z,9.85
2022-12-25T12:15:21.700Z,9.88
2022-12-25T12:17:48.402Z,9.90
2022-12-25T12:20:27.139Z,9.90
2022-12-25T12:22:53.955Z,9.93
2022-12-25T12:25:22.240Z,9.98
2022-12-25T12:27:53.441Z,10.03
2022-12-25T12:30:27.115Z,10.04
2022-12-25T12:32:54.757Z,10.04
2022-12-25T12:35:23.090Z,10.02
2022-12-25T12:37:51.830Z,10.02
2022-12-25T12:40:33.925Z,10.02
2022-12-25T12:43:00.830Z,10.03
2022-12-25T12:45:29.919Z,10.03
2022-12-25T12:47:57.126Z,10.03
2022-12-25T12:50:35.039Z,10.05
2022-12-25T12:53:15.590Z,10.04
2022-12-25T12:55:43.696Z,10.05
2022-12-25T12:58:13.036Z,10.05
2022-12-25T13:01:12.160Z,10.04
2022-12-25T13:03:58.644Z,10.04
2022-12-25T13:06:29.731Z,10.03
2022-12-25T13:09:04.972Z,10.01
2022-12-25T13:11:35.569Z,10.01
2022-12-25T13:14:02.855Z,10.01
2022-12-25T13:16:31.019Z,10.00
2022-12-25T13:18:58.134Z,9.97
2022-12-25T13:21:25.692Z,9.96
2022-12-25T13:23:56.267Z,9.95
2022-12-25T13:26:23.044Z,9.94
2022-12-25T13:28:50.846Z,9.94
2022-12-25T13:31:18.551Z,9.93
2022-12-25T13:33:45.646Z,9.94
2022-12-25T13:36:13.258Z,9.93
2022-12-25T13:38:43.100Z,9.94
2022-12-25T13:41:09.866Z,9.96
2022-12-25T13:43:37.112Z,9.96
2022-12-25T13:46:05.547Z,9.97
2022-12-25T13:48:32.447Z,9.95
2022-12-25T13:50:59.810Z,9.97
2022-12-25T13:53:26.696Z,9.96
2022-12-25T13:55:54.487Z,9.97
2022-12-25T13:58:24.133Z,9.98
2022-12-25T14:00:51.945Z,9.96
2022-12-25T14:03:22.476Z,9.96
2022-12-25T14:05:55.708Z,9.97
2022-12-25T14:08:25.181Z,9.96
2022-12-25T14:10:52.513Z,9.96
2022-12-25T14:13:20.914Z,9.98
2022-12-25T14:15:48.866Z,9.98
2022-12-25T14:18:16.053Z,9.99
2022-12-25T14:20:55.394Z,9.98
2022-12-25T14:23:22.032Z,9.99
2022-12-25T14:25:48.671Z,9.98
2022-12-25T14:28:18.061Z,10.01
2022-12-25T14:30:44.986Z,10.03
2022-12-25T14:33:14.452Z,10.05
2022-12-25T14:35:41.046Z,10.04
2022-12-25T14:38:23.317Z,10.06
2022-12-25T14:40:58.114Z,10.05
2022-12-25T14:43:25.848Z,10.05
2022-12-25T14:45:54.938Z,10.05
2022-12-25T14:48:25.187Z,10.06
2022-12-25T14:50:55.925Z,10.05
2022-12-25T14:53:29.436Z,10.04
2022-12-25T14:55:56.241Z,10.05
2022-12-25T14:58:25.542Z,10.03
2022-12-25T15:00:54.870Z,10.03
2022-12-25T15:03:24.200Z,10.04
2022-12-25T15:05:57.928Z,10.02
2022-12-25T15:08:25.965Z,10.01
2022-12-25T15:11:03.071Z,10.00
2022-12-25T15:13:30.601Z,9.99
2022-12-25T15:15:58.720Z,9.97
2022-12-25T15:18:27.367Z,9.97
2022-12-25T15:20:54.077Z,9.96
2022-12-25T15:23:20.956Z,9.95
2022-12-25T15:25:48.922Z,9.93
2022-12-25T15:28:15.554Z,9.92
2022-12-25T15:30:42.439Z,9.91
2022-12-25T15:33:13.057Z,9.91
2022-12-25T15:35:39.645Z,9.89
2022-12-25T15:38:06.338Z,9.91
2022-12-25T15:40:32.816Z,9.89
2022-12-25T15:43:00.726Z,9.90
2022-12-25T15:45:28.847Z,9.87
2022-12-25T15:47:55.313Z,9.87
2022-12-25T15:50:21.835Z,9.94
2022-12-25T15:52:48.748Z,9.96
2022-12-25T15:55:15.606Z,9.97
2022-12-25T15:57:43.292Z,9.97
2022-12-25T16:00:15.827Z,9.96
2022-12-25T16:02:42.584Z,9.96
2022-12-25T16:05:10.605Z,9.98
2022-12-25T16:07:37.720Z,9.94
2022-12-25T16:10:04.636Z,9.95
2022-12-25T16:12:31.048Z,9.92
2022-12-25T16:14:57.490Z,9.92
2022-12-25T16:17:25.341Z,9.91
2022-12-25T16:19:51.729Z,9.93
2022-12-25T16:22:19.010Z,9.94
2022-12-25T16:24:45.463Z,9.93
2022-12-25T16:27:11.906Z,9.93
2022-12-25T16:29:38.460Z,9.93
2022-12-25T16:32:04.887Z,9.92
2022-12-25T16:34:32.845Z,9.94
2022-12-25T16:36:59.323Z,9.94
2022-12-25T16:39:25.822Z,9.95
2022-12-25T16:41:52.208Z,9.96
2022-12-25T16:44:18.628Z,9.97
2022-12-25T16:46:45.094Z,9.98
2022-12-25T16:49:11.640Z,9.99
2022-12-25T16:51:39.404Z,9.98
2022-12-25T16:54:05.993Z,9.97
2022-12-25T16:56:32.433Z,9.97
2022-12-25T16:58:59.280Z,9.96
2022-12-25T17:01:25.827Z,9.95
2022-12-25T17:03:52.662Z,9.97
2022-12-25T17:06:20.532Z,9.98
2022-12-25T17:08:48.953Z,9.99
2022-12-25T17:11:16.498Z,9.99
2022-12-25T17:13:45.581Z,10.00
2022-12-25T17:16:15.627Z,10.01
2022-12-25T17:18:42.356Z,10.01
2022-12-25T17:21:08.767Z,10.01
2022-12-25T17:23:35.975Z,10.01
2022-12-25T17:26:04.277Z,10.02
2022-12-25T17:28:30.732Z,10.03
2022-12-25T17:31:01.460Z,10.04
2022-12-25T17:33:28.005Z,10.03
2022-12-25T17:35:58.642Z,10.04
2022-12-25T17:38:30.240Z,10.05
2022-12-25T17:40:56.898Z,10.08
2022-12-25T17:43:25.135Z,10.07
2022-12-25T17:45:51.799Z,10.09
2022-12-25T17:48:18.251Z,10.11
2022-12-25T17:50:45.004Z,10.11
2022-12-25T17:53:11.454Z,10.11
2022-12-25T17:55:37.832Z,10.12
2022-12-25T17:58:04.476Z,10.14
2022-12-25T18:00:32.263Z,10.16
2022-12-25T18:02:58.945Z,10.17
2022-12-25T18:05:25.409Z,10.17
2022-12-25T18:07:54.301Z,10.19
2022-12-25T18:10:20.763Z,10.19
2022-12-25T18:12:47.167Z,10.20
2022-12-25T18:15:13.716Z,10.21
2022-12-25T18:17:41.420Z,10.21
2022-12-25T18:20:08.572Z,10.22
2022-12-25T18:22:34.990Z,10.22
2022-12-25T18:25:01.460Z,10.24
2022-12-25T18:27:27.837Z,10.26
2022-12-25T18:29:54.362Z,10.25
2022-12-25T18:32:26.290Z,10.25
2022-12-25T18:34:56.046Z,10.27
2022-12-25T18:37:22.470Z,10.29
2022-12-25T18:39:49.016Z,10.30
2022-12-25T18:42:15.461Z,10.31
2022-12-25T18:44:41.900Z,10.34
2022-12-25T18:47:08.319Z,10.35
2022-12-25T18:49:35.346Z,10.36
2022-12-25T18:52:49.020Z,10.37
2022-12-25T18:54:50.847Z,10.32
2022-12-25T18:57:17.485Z,10.31
2022-12-25T18:59:44.155Z,10.31
2022-12-25T19:02:11.110Z,10.33
2022-12-25T19:04:37.750Z,10.34
2022-12-25T19:07:05.580Z,10.38
2022-12-25T19:09:32.082Z,10.42
2022-12-25T19:11:58.461Z,10.46
2022-12-25T19:14:25.248Z,10.46
2022-12-25T19:16:51.818Z,10.48
2022-12-25T19:19:18.348Z,10.48
2022-12-25T19:21:44.768Z,10.48
2022-12-25T19:24:12.671Z,10.48
2022-12-25T19:26:39.215Z,10.49
2022-12-25T19:29:05.850Z,10.49
2022-12-25T19:31:32.391Z,10.50
2022-12-25T19:33:58.918Z,10.51
2022-12-25T19:36:25.349Z,10.52
2022-12-25T19:38:51.871Z,10.52
2022-12-25T19:41:19.666Z,10.52
2022-12-25T19:43:47.082Z,10.52
2022-12-25T19:46:15.008Z,10.54
2022-12-25T19:48:42.755Z,10.54
2022-12-25T19:51:14.461Z,10.58
2022-12-25T19:53:40.862Z,10.58
2022-12-25T19:56:07.343Z,10.59
2022-12-25T19:58:35.091Z,10.61
2022-12-25T20:01:02.854Z,10.64
2022-12-25T20:03:29.470Z,10.66
2022-12-25T20:05:56.117Z,10.65
2022-12-25T20:08:23.882Z,10.71
2022-12-25T20:10:50.474Z,10.69
2022-12-25T20:13:17.573Z,10.68
2022-12-25T20:15:45.338Z,10.71
2022-12-25T20:18:11.859Z,10.73
2022-12-25T20:20:38.287Z,10.73
2022-12-25T20:23:04.856Z,10.77
2022-12-25T20:25:31.359Z,10.77
2022-12-25T20:27:58.131Z,10.78
2022-12-25T20:30:24.587Z,10.78
2022-12-25T20:32:52.391Z,10.78
2022-12-25T20:35:18.812Z,10.77
2022-12-25T20:37:45.316Z,10.77
2022-12-25T20:40:12.430Z,10.74
2022-12-25T20:42:38.925Z,10.73
2022-12-25T20:45:05.855Z,10.71
2022-12-25T20:47:32.342Z,10.72
2022-12-25T20:50:00.083Z,10.71
2022-12-25T20:52:26.568Z,10.70
2022-12-25T20:54:53.711Z,10.72
2022-12-25T20:57:20.144Z,10.72
2022-12-25T20:59:46.913Z,10.75
2022-12-25T21:02:35.515Z,10.77
2022-12-25T21:05:01.516Z,10.79
2022-12-25T21:07:28.063Z,10.81
2022-12-25T21:09:54.547Z,10.82
2022-12-25T21:12:20.951Z,10.83
2022-12-25T21:14:47.474Z,10.81
2022-12-25T21:17:13.873Z,10.84
2022-12-25T21:19:40.423Z,10.81
2022-12-25T21:22:08.251Z,10.81
2022-12-25T21:24:34.788Z,10.78
2022-12-25T21:27:01.204Z,10.78
2022-12-25T21:29:27.688Z,10.77
2022-12-25T21:31:54.569Z,10.75
2022-12-25T21:34:21.061Z,10.76
2022-12-25T21:36:47.773Z,10.75
2022-12-25T21:39:15.605Z,10.73
2022-12-25T21:41:42.033Z,10.72
2022-12-25T21:44:08.928Z,10.71
2022-12-25T21:46:35.411Z,10.71
2022-12-25T21:49:02.165Z,10.71
2022-12-25T21:51:29.789Z,10.72
2022-12-25T21:53:57.419Z,10.75
2022-12-25T21:56:26.975Z,10.76
2022-12-25T21:58:53.454Z,10.78
2022-12-25T22:01:19.924Z,10.77
2022-12-25T22:03:46.567Z,10.78
2022-12-25T22:06:19.274Z,10.78
2022-12-25T22:08:47.702Z,10.82
2022-12-25T22:11:14.155Z,10.80
2022-12-25T22:13:42.074Z,10.82
2022-12-25T22:16:08.725Z,10.82
2022-12-25T22:18:35.234Z,10.82
2022-12-25T22:21:01.652Z,10.84
2022-12-25T22:23:28.127Z,10.84
2022-12-25T22:25:54.716Z,10.84
2022-12-25T22:28:23.303Z,10.83
2022-12-25T22:30:51.278Z,10.83
2022-12-25T22:33:17.790Z,10.82
2022-12-25T22:35:44.317Z,10.83
2022-12-25T22:38:10.763Z,10.84
2022-12-25T22:40:37.178Z,10.86
2022-12-25T22:43:05.525Z,10.88
2022-12-25T22:45:32.784Z,10.83
2022-12-25T22:48:00.569Z,10.85
2022-12-25T22:50:28.064Z,10.85
2022-12-25T22:52:54.627Z,10.85
2022-12-25T22:55:20.999Z,10.84
2022-12-25T22:57:47.556Z,10.85
2022-12-25T23:00:14.068Z,10.85
2022-12-25T23:02:40.644Z,10.85
2022-12-25T23:05:08.846Z,10.83
2022-12-25T23:07:35.407Z,10.85
2022-12-25T23:10:01.892Z,10.86
2022-12-25T23:12:28.573Z,10.86
2022-12-25T23:14:55.046Z,10.88
2022-12-25T23:17:21.487Z,10.90
2022-12-25T23:19:47.969Z,10.89
2022-12-25T23:22:15.712Z,10.88
2022-12-25T23:24:42.190Z,10.90
2022-12-25T23:27:08.683Z,10.88
2022-12-25T23:29:35.197Z,10.88
2022-12-25T23:32:02.042Z,10.90
2022-12-25T23:34:28.667Z,10.89
2022-12-25T23:36:55.118Z,10.89
2022-12-25T23:39:22.954Z,10.89
2022-12-25T23:41:49.484Z,10.90
2022-12-25T23:44:15.948Z,10.91
2022-12-25T23:46:52.388Z,10.89
2022-12-25T23:49:20.347Z,10.81
2022-12-25T23:51:46.977Z,10.77
2022-12-25T23:54:15.143Z,10.75
2022-12-25T23:56:43.446Z,10.68
2022-12-25T23:59:10.053Z,10.66
